createdAt,value
2018-11-20T00:01:15.553Z,6.13
2018-11-20T00:04:03.670Z,6.06
2018-11-20T00:06:51.701Z,6.06
2018-11-20T00:12:46.875Z,6.11
2018-11-20T00:15:30.569Z,6.15
2018-11-20T00:18:14.530Z,6.10
2018-11-20T00:21:02.530Z,6.10
2018-11-20T00:29:42.218Z,6.07
2018-11-20T00:35:16.047Z,6.22
2018-11-20T00:38:23.316Z,6.10
2018-11-20T00:41:11.366Z,6.08
2018-11-20T00:44:18.485Z,6.02
2018-11-20T00:47:00.629Z,6.02
2018-11-20T00:50:03.644Z,6.09
2018-11-20T00:52:45.466Z,6.05
2018-11-20T00:56:11.847Z,6.05
2018-11-20T01:02:04.447Z,6.09
2018-11-20T01:04:52.476Z,6.03
2018-11-20T01:07:59.340Z,6.02
2018-11-20T01:10:41.592Z,6.03
2018-11-20T01:13:48.853Z,4.63
2018-11-20T01:16:36.912Z,6.05
2018-11-20T01:22:13.650Z,5.80
2018-11-20T01:24:55.960Z,5.71
2018-11-20T01:27:43.881Z,4.40
2018-11-20T01:30:32.030Z,5.78
2018-11-20T01:36:00.760Z,5.70
2018-11-20T01:38:48.912Z,5.68
2018-11-20T01:41:37.092Z,5.65
2018-11-20T01:44:25.111Z,5.87
2018-11-20T01:47:32.332Z,5.77
2018-11-20T01:50:20.506Z,5.76
2018-11-20T01:53:08.511Z,5.67
2018-11-20T01:55:56.529Z,5.70
2018-11-20T01:59:03.806Z,5.68
2018-11-20T02:01:51.861Z,5.68
2018-11-20T02:04:59.197Z,5.67
2018-11-20T02:07:47.279Z,5.70
2018-11-20T02:10:35.334Z,5.72
2018-11-20T02:14:01.815Z,5.74
2018-11-20T02:16:52.432Z,5.73
2018-11-20T02:19:40.580Z,5.65
2018-11-20T02:28:01.884Z,5.71
2018-11-20T02:30:44.244Z,5.70
2018-11-20T02:33:32.301Z,5.68
2018-11-20T02:36:20.361Z,5.74
2018-11-20T02:39:08.361Z,5.78
2018-11-20T02:47:44.787Z,5.83
2018-11-20T02:53:13.233Z,5.66
2018-11-20T02:56:01.381Z,5.71
2018-11-20T02:58:48.783Z,5.70
2018-11-20T03:01:36.972Z,5.76
2018-11-20T03:04:24.896Z,5.72
2018-11-20T03:07:00.624Z,5.73
2018-11-20T03:13:08.202Z,5.68
2018-11-20T03:15:52.677Z,5.67
2018-11-20T03:18:46.058Z,5.67
2018-11-20T03:21:29.722Z,5.68
2018-11-20T03:24:33.252Z,5.78
2018-11-20T03:27:17.243Z,5.78
2018-11-20T03:30:01.365Z,5.72
2018-11-20T03:32:49.600Z,5.78
2018-11-20T03:38:26.002Z,5.83
2018-11-20T03:41:13.997Z,5.82
2018-11-20T03:46:57.247Z,5.91
2018-11-20T03:52:30.996Z,5.96
2018-11-20T04:06:25.652Z,6.17
2018-11-20T04:09:13.660Z,6.07
2018-11-20T04:12:21.023Z,6.03
2018-11-20T04:15:08.996Z,5.96
2018-11-20T04:21:04.401Z,5.97
2018-11-20T04:23:52.886Z,5.95
2018-11-20T04:29:16.091Z,5.94
2018-11-20T04:31:58.312Z,5.70
2018-11-20T04:34:46.379Z,5.75
2018-11-20T04:46:19.656Z,5.55
2018-11-20T04:49:07.755Z,5.63
2018-11-20T04:55:02.683Z,5.68
2018-11-20T04:57:50.730Z,5.71
2018-11-20T05:00:38.923Z,5.80
2018-11-20T05:03:27.025Z,5.81
2018-11-20T05:06:15.124Z,5.80
2018-11-20T05:09:03.339Z,5.88
2018-11-20T05:11:42.024Z,5.85
2018-11-20T05:14:30.031Z,5.86
2018-11-20T05:22:55.459Z,6.03
2018-11-20T05:25:43.607Z,5.99
2018-11-20T05:28:31.581Z,6.05
2018-11-20T05:36:51.040Z,6.10
2018-11-20T05:39:38.995Z,6.25
2018-11-20T05:42:17.537Z,6.37
2018-11-20T05:45:25.047Z,6.41
2018-11-20T05:48:13.182Z,6.34
2018-11-20T05:51:20.342Z,6.39
2018-11-20T05:54:08.370Z,6.40
2018-11-20T05:56:56.395Z,6.37
2018-11-20T05:59:44.350Z,6.29
2018-11-20T06:02:32.488Z,6.31
2018-11-20T06:05:20.585Z,6.36
2018-11-20T06:08:09.196Z,6.41
2018-11-20T06:10:57.229Z,6.42
2018-11-20T06:13:45.467Z,6.44
2018-11-20T06:16:33.591Z,6.49
2018-11-20T06:19:21.607Z,6.45
2018-11-20T06:25:20.398Z,6.52
2018-11-20T06:28:08.812Z,6.49
2018-11-20T06:30:57.046Z,6.49
2018-11-20T06:34:04.078Z,6.44
2018-11-20T06:36:47.922Z,6.56
2018-11-20T06:42:19.091Z,6.70
2018-11-20T06:45:07.214Z,6.70
2018-11-20T06:47:55.349Z,6.71
2018-11-20T06:50:43.303Z,6.84
2018-11-20T06:53:31.426Z,6.91
2018-11-20T06:56:19.367Z,6.97
2018-11-20T06:59:11.493Z,7.05
2018-11-20T07:01:55.877Z,7.18
2018-11-20T07:07:31.510Z,7.39
2018-11-20T07:10:38.383Z,7.16
2018-11-20T07:16:43.504Z,7.33
2018-11-20T07:22:38.812Z,7.19
2018-11-20T07:25:46.008Z,7.29
2018-11-20T07:28:34.063Z,7.40
2018-11-20T07:31:22.262Z,7.44
2018-11-20T07:36:54.907Z,7.48
2018-11-20T07:39:42.739Z,7.56
2018-11-20T07:42:25.178Z,7.50
2018-11-20T07:45:13.339Z,7.61
2018-11-20T07:48:20.379Z,7.69
2018-11-20T07:51:08.420Z,7.69
2018-11-20T07:54:15.748Z,7.68
2018-11-20T07:57:05.796Z,7.68
2018-11-20T08:00:12.980Z,7.70
2018-11-20T08:03:01.119Z,7.70
2018-11-20T08:06:08.205Z,7.67
2018-11-20T08:08:56.292Z,7.85
2018-11-20T08:12:03.563Z,8.04
2018-11-20T08:14:51.630Z,8.18
2018-11-20T08:17:58.792Z,8.38
2018-11-20T08:23:32.002Z,8.71
2018-11-20T08:26:39.334Z,8.75
2018-11-20T08:29:20.335Z,8.84
2018-11-20T08:32:01.866Z,9.00
2018-11-20T08:35:07.114Z,9.00
2018-11-20T08:41:01.417Z,8.88
2018-11-20T08:43:45.064Z,9.24
2018-11-20T08:49:12.404Z,9.24
2018-11-20T08:52:00.546Z,9.24
2018-11-20T08:54:48.641Z,9.42
2018-11-20T08:57:36.710Z,9.50
2018-11-20T09:00:43.810Z,9.65
2018-11-20T09:06:15.348Z,9.77
2018-11-20T09:12:10.456Z,10.04
2018-11-20T09:17:39.940Z,10.23
2018-11-20T09:26:05.313Z,11.57
2018-11-20T09:28:53.280Z,11.94
2018-11-20T09:34:28.364Z,12.16
2018-11-20T09:37:16.416Z,12.15
2018-11-20T09:40:31.540Z,11.93
2018-11-20T09:43:38.829Z,12.16
2018-11-20T09:46:27.530Z,12.71
2018-11-20T09:49:15.593Z,12.73
2018-11-20T09:52:22.662Z,12.72
2018-11-20T09:55:11.244Z,12.45
2018-11-20T10:00:53.994Z,12.20
2018-11-20T10:04:01.222Z,12.40
2018-11-20T10:07:04.474Z,12.37
2018-11-20T10:09:52.418Z,12.37
2018-11-20T10:12:37.684Z,11.96
2018-11-20T10:15:44.810Z,11.68
2018-11-20T10:18:27.139Z,11.75
2018-11-20T10:21:06.613Z,11.75
2018-11-20T10:24:13.754Z,11.71
2018-11-20T10:27:20.834Z,11.65
2018-11-20T10:35:40.897Z,11.51
2018-11-20T10:41:14.244Z,11.20
2018-11-20T10:44:02.568Z,11.44
2018-11-20T10:46:50.817Z,11.31
2018-11-20T10:49:39.394Z,11.51
2018-11-20T10:52:46.528Z,11.86
2018-11-20T10:55:34.602Z,11.82
2018-11-20T11:01:14.510Z,11.77
2018-11-20T11:10:12.699Z,12.10
2018-11-20T11:13:19.793Z,12.12
2018-11-20T11:16:07.972Z,12.13
2018-11-20T11:21:40.382Z,12.33
2018-11-20T11:24:28.295Z,11.83
2018-11-20T11:27:16.476Z,11.71
2018-11-20T11:30:23.739Z,11.96
2018-11-20T11:33:30.879Z,12.03
2018-11-20T11:36:18.935Z,11.89
2018-11-20T11:39:27.118Z,11.70
2018-11-20T11:42:15.305Z,11.70
2018-11-20T11:48:06.524Z,12.07
2018-11-20T11:53:40.960Z,11.41
2018-11-20T11:56:29.007Z,11.48
2018-11-20T11:59:12.605Z,11.77
2018-11-20T12:04:46.791Z,11.60
2018-11-20T12:07:53.919Z,11.57
2018-11-20T12:10:42.684Z,11.60
2018-11-20T12:13:32.009Z,11.55
2018-11-20T12:16:20.186Z,11.47
2018-11-20T12:19:27.451Z,11.42
2018-11-20T12:22:15.542Z,11.49
2018-11-20T12:25:22.696Z,11.33
2018-11-20T12:28:29.773Z,11.33
2018-11-20T12:31:17.712Z,11.30
2018-11-20T12:34:00.225Z,11.03
2018-11-20T12:36:48.825Z,11.03
2018-11-20T12:39:38.402Z,10.91
2018-11-20T12:42:24.492Z,10.91
2018-11-20T12:45:13.563Z,10.97
2018-11-20T12:50:47.365Z,10.77
2018-11-20T12:53:35.948Z,10.60
2018-11-20T12:56:24.059Z,10.40
2018-11-20T12:59:13.883Z,10.45
2018-11-20T13:02:00.260Z,10.42
2018-11-20T13:04:50.012Z,10.38
2018-11-20T13:07:32.407Z,10.42
2018-11-20T13:10:21.005Z,10.42
2018-11-20T13:13:08.724Z,10.43
2018-11-20T13:18:42.756Z,10.40
2018-11-20T13:21:30.903Z,10.37
2018-11-20T13:24:38.018Z,10.31
2018-11-20T13:27:26.234Z,10.38
2018-11-20T13:30:33.326Z,10.31
2018-11-20T13:33:23.448Z,10.18
2018-11-20T13:36:09.445Z,10.19
2018-11-20T13:38:57.724Z,10.10
2018-11-20T13:42:04.979Z,10.16
2018-11-20T13:45:18.441Z,10.07
2018-11-20T13:48:01.441Z,10.18
2018-11-20T13:50:51.871Z,10.24
2018-11-20T13:53:55.444Z,10.22
2018-11-20T13:56:43.399Z,10.20
2018-11-20T14:05:25.188Z,10.09
2018-11-20T14:08:20.901Z,10.03
2018-11-20T14:11:28.180Z,9.99
2018-11-20T14:14:16.425Z,9.99
2018-11-20T14:17:23.491Z,9.89
2018-11-20T14:20:11.497Z,9.86
2018-11-20T14:23:18.638Z,9.73
2018-11-20T14:26:02.126Z,9.75
2018-11-20T14:28:50.138Z,9.75
2018-11-20T14:31:57.308Z,9.68
2018-11-20T14:37:25.280Z,9.74
2018-11-20T14:40:13.520Z,9.74
2018-11-20T14:43:20.629Z,9.79
2018-11-20T14:46:08.687Z,9.85
2018-11-20T14:54:33.254Z,9.67
2018-11-20T15:00:05.396Z,9.49
2018-11-20T15:02:53.410Z,9.47
2018-11-20T15:06:00.685Z,9.44
2018-11-20T15:11:35.280Z,9.44
2018-11-20T15:14:23.542Z,9.46
2018-11-20T15:17:07.522Z,9.46
2018-11-20T15:19:55.622Z,9.46
2018-11-20T15:22:43.874Z,9.46
2018-11-20T15:28:21.208Z,9.37
2018-11-20T15:33:53.367Z,9.38
2018-11-20T15:36:41.386Z,9.33
2018-11-20T15:39:48.550Z,9.37
2018-11-20T15:42:36.580Z,9.37
2018-11-20T15:48:30.506Z,9.47
2018-11-20T15:51:18.667Z,9.51
2018-11-20T15:54:06.578Z,9.52
2018-11-20T15:56:47.921Z,9.47
2018-11-20T16:02:42.665Z,9.48
2018-11-20T16:05:30.775Z,9.48
2018-11-20T16:08:18.919Z,9.41
2018-11-20T16:11:06.847Z,9.50
2018-11-20T16:14:14.036Z,9.44
2018-11-20T16:17:16.470Z,9.44
2018-11-20T16:19:50.119Z,9.50
2018-11-20T16:22:57.259Z,9.48
2018-11-20T16:25:45.341Z,9.48
2018-11-20T16:28:33.566Z,9.47
2018-11-20T16:31:21.502Z,9.51
2018-11-20T16:34:09.454Z,9.45
2018-11-20T16:36:57.411Z,9.54
2018-11-20T16:40:04.639Z,9.54
2018-11-20T16:42:52.718Z,9.54
2018-11-20T16:45:59.849Z,9.57
2018-11-20T16:51:35.743Z,9.53
2018-11-20T16:54:23.791Z,9.56
2018-11-20T16:57:11.879Z,9.48
2018-11-20T16:59:59.913Z,9.53
2018-11-20T17:02:48.054Z,9.54
2018-11-20T17:05:35.960Z,9.55
2018-11-20T17:08:24.062Z,9.53
2018-11-20T17:11:12.564Z,9.56
2018-11-20T17:14:00.754Z,9.57
2018-11-20T17:19:52.402Z,9.46
2018-11-20T17:22:40.397Z,9.40
2018-11-20T17:25:21.743Z,9.42
2018-11-20T17:28:28.917Z,9.39
2018-11-20T17:33:59.461Z,9.35
2018-11-20T17:36:47.696Z,9.24
2018-11-20T17:39:38.211Z,9.36
2018-11-20T17:42:26.257Z,9.33
2018-11-20T17:45:11.907Z,9.24
2018-11-20T17:47:59.963Z,9.29
2018-11-20T17:56:36.078Z,9.32
2018-11-20T17:59:19.626Z,9.32
2018-11-20T18:02:08.098Z,9.38
2018-11-20T18:04:56.113Z,9.43
2018-11-20T18:07:38.178Z,9.46
2018-11-20T18:13:07.779Z,9.44
2018-11-20T18:15:56.005Z,9.44
2018-11-20T18:18:44.171Z,9.52
2018-11-20T18:21:32.256Z,9.44
2018-11-20T18:24:23.457Z,9.44
2018-11-20T18:27:27.746Z,9.43
2018-11-20T18:30:15.809Z,9.50
2018-11-20T18:33:03.864Z,9.50
2018-11-20T18:35:46.101Z,9.47
2018-11-20T18:38:34.065Z,9.47
2018-11-20T18:41:41.291Z,9.48
2018-11-20T18:44:25.530Z,9.64
2018-11-20T18:47:13.562Z,9.49
2018-11-20T18:50:20.835Z,9.47
2018-11-20T18:53:08.881Z,9.47
2018-11-20T18:55:50.519Z,9.53
2018-11-20T18:58:38.512Z,9.60
2018-11-20T19:01:26.595Z,9.48
2018-11-20T19:07:00.949Z,9.56
2018-11-20T19:09:49.558Z,9.47
2018-11-20T19:12:38.194Z,9.47
2018-11-20T19:15:27.393Z,9.49
2018-11-20T19:18:15.680Z,9.61
2018-11-20T19:21:04.117Z,9.70
2018-11-20T19:23:46.678Z,9.69
2018-11-20T19:26:35.557Z,9.69
2018-11-20T19:29:23.877Z,9.60
2018-11-20T19:34:58.340Z,9.92
2018-11-20T19:38:05.548Z,9.81
2018-11-20T19:40:49.072Z,9.81
2018-11-20T19:43:37.046Z,9.82
2018-11-20T19:49:13.310Z,9.80
2018-11-20T19:52:01.360Z,9.60
2018-11-20T19:54:50.052Z,9.53
2018-11-20T19:57:38.237Z,9.45
2018-11-20T20:00:29.188Z,9.50
2018-11-20T20:03:17.320Z,9.50
2018-11-20T20:06:05.273Z,9.59
2018-11-20T20:08:47.283Z,9.57
2018-11-20T20:11:28.498Z,9.54
2018-11-20T20:16:49.380Z,9.45
2018-11-20T20:19:37.575Z,9.45
2018-11-20T20:22:25.717Z,9.49
2018-11-20T20:25:07.731Z,9.47
2018-11-20T20:30:45.898Z,9.43
2018-11-20T20:33:33.905Z,9.49
2018-11-20T20:39:05.231Z,9.60
2018-11-20T20:53:58.745Z,9.52
2018-11-20T20:56:45.801Z,9.47
2018-11-20T20:59:52.264Z,9.66
2018-11-20T21:02:39.445Z,9.65
2018-11-20T21:05:29.589Z,9.60
2018-11-20T21:08:16.834Z,9.66
2018-11-20T21:11:23.151Z,9.68
2018-11-20T21:14:10.366Z,9.68
2018-11-20T21:17:16.674Z,9.69
2018-11-20T21:20:03.821Z,9.69
2018-11-20T21:23:10.198Z,9.74
2018-11-20T21:25:57.468Z,9.74
2018-11-20T21:28:44.726Z,9.84
2018-11-20T21:31:32.354Z,9.89
2018-11-20T21:34:19.341Z,9.82
2018-11-20T21:37:02.427Z,9.92
2018-11-20T21:39:49.610Z,9.92
2018-11-20T21:42:55.988Z,9.84
2018-11-20T21:45:37.419Z,9.86
2018-11-20T21:48:24.603Z,9.86
2018-11-20T21:51:11.797Z,9.80
2018-11-20T21:54:16.543Z,9.70
2018-11-20T21:59:45.617Z,9.80
2018-11-20T22:02:32.782Z,9.65
2018-11-20T22:05:19.919Z,9.65
2018-11-20T22:10:54.144Z,9.81
2018-11-20T22:13:41.207Z,10.04
2018-11-20T22:16:28.408Z,10.06
2018-11-20T22:19:34.739Z,10.22
2018-11-20T22:22:16.658Z,10.30
2018-11-20T22:25:03.726Z,10.30
2018-11-20T22:27:50.882Z,10.18
2018-11-20T22:34:24.179Z,10.19
2018-11-20T22:39:54.853Z,10.26
2018-11-20T22:42:37.914Z,10.24
2018-11-20T22:48:24.465Z,10.13
2018-11-20T22:51:17.107Z,10.24
2018-11-20T22:56:37.212Z,10.51
2018-11-20T22:59:24.634Z,10.49
2018-11-20T23:02:11.625Z,10.62
2018-11-20T23:04:57.412Z,10.62
2018-11-20T23:07:44.470Z,10.74
2018-11-20T23:10:32.448Z,10.70
2018-11-20T23:13:00.495Z,10.76
2018-11-20T23:15:30.316Z,10.78
2018-11-20T23:17:57.819Z,10.77
2018-11-20T23:20:25.451Z,10.86
2018-11-20T23:22:52.971Z,10.93
2018-11-20T23:25:20.482Z,11.03
2018-11-20T23:27:48.083Z,11.02
2018-11-20T23:30:16.231Z,10.87
2018-11-20T23:32:43.986Z,10.82
2018-11-20T23:35:12.354Z,10.68
2018-11-20T23:37:40.642Z,10.40
2018-11-20T23:40:09.301Z,10.53
2018-11-20T23:42:37.417Z,10.52
2018-11-20T23:45:07.363Z,10.51
2018-11-20T23:47:54.226Z,10.41
2018-11-20T23:50:22.092Z,10.40
2018-11-20T23:52:49.656Z,10.38
2018-11-20T23:55:17.294Z,10.32
2018-11-20T23:57:44.918Z,10.32
